sensor_id;sensor_type;location;lat;lon;timestamp;P1;durP1;ratioP1;P2;durP2;ratioP2
18669;SDS011;9464;44.918;9.670;2022-10-31T00:00:47;5.53;;;2.93;;
18669;SDS011;9464;44.918;9.670;2022-10-31T00:03:15;5.07;;;2.73;;
18669;SDS011;9464;44.918;9.670;2022-10-31T00:05:45;3.70;;;2.47;;
18669;SDS011;9464;44.918;9.670;2022-10-31T00:08:13;3.13;;;2.33;;
18669;SDS011;9464;44.918;9.670;2022-10-31T00:10:42;3.77;;;2.37;;
18669;SDS011;9464;44.918;9.670;2022-10-31T00:13:11;5.30;;;2.70;;
18669;SDS011;9464;44.918;9.670;2022-10-31T00:15:40;7.23;;;2.87;;
18669;SDS011;9464;44.918;9.670;2022-10-31T00:18:10;5.10;;;2.50;;
18669;SDS011;9464;44.918;9.670;2022-10-31T00:20:38;5.60;;;3.00;;
18669;SDS011;9464;44.918;9.670;2022-10-31T00:23:07;5.23;;;2.87;;
18669;SDS011;9464;44.918;9.670;2022-10-31T00:25:36;5.03;;;2.83;;
18669;SDS011;9464;44.918;9.670;2022-10-31T00:28:05;10.87;;;2.87;;
18669;SDS011;9464;44.918;9.670;2022-10-31T00:30:34;5.07;;;2.57;;
18669;SDS011;9464;44.918;9.670;2022-10-31T00:33:03;4.60;;;2.47;;
18669;SDS011;9464;44.918;9.670;2022-10-31T00:35:33;3.90;;;2.50;;
18669;SDS011;9464;44.918;9.670;2022-10-31T00:38:01;6.93;;;2.50;;
18669;SDS011;9464;44.918;9.670;2022-10-31T00:40:29;3.53;;;2.43;;
18669;SDS011;9464;44.918;9.670;2022-10-31T00:42:58;4.17;;;2.43;;
18669;SDS011;9464;44.918;9.670;2022-10-31T00:45:27;3.67;;;2.63;;
18669;SDS011;9464;44.918;9.670;2022-10-31T00:47:55;5.23;;;3.20;;
18669;SDS011;9464;44.918;9.670;2022-10-31T00:50:24;5.40;;;2.70;;
18669;SDS011;9464;44.918;9.670;2022-10-31T00:52:54;7.27;;;2.97;;
18669;SDS011;9464;44.918;9.670;2022-10-31T00:55:23;6.07;;;2.70;;
18669;SDS011;9464;44.918;9.670;2022-10-31T00:57:51;4.03;;;2.63;;
18669;SDS011;9464;44.918;9.670;2022-10-31T01:00:20;6.40;;;2.40;;
18669;SDS011;9464;44.918;9.670;2022-10-31T01:02:48;3.07;;;2.40;;
18669;SDS011;9464;44.918;9.670;2022-10-31T01:05:16;5.67;;;2.10;;
18669;SDS011;9464;44.918;9.670;2022-10-31T01:07:45;3.60;;;2.27;;
18669;SDS011;9464;44.918;9.670;2022-10-31T01:10:15;3.27;;;2.40;;
18669;SDS011;9464;44.918;9.670;2022-10-31T01:12:44;4.90;;;2.40;;
18669;SDS011;9464;44.918;9.670;2022-10-31T01:15:14;7.20;;;2.23;;
18669;SDS011;9464;44.918;9.670;2022-10-31T01:17:43;4.83;;;2.40;;
18669;SDS011;9464;44.918;9.670;2022-10-31T01:20:12;3.93;;;2.23;;
18669;SDS011;9464;44.918;9.670;2022-10-31T01:22:41;4.37;;;2.50;;
18669;SDS011;9464;44.918;9.670;2022-10-31T01:25:10;5.33;;;2.73;;
18669;SDS011;9464;44.918;9.670;2022-10-31T01:27:39;5.33;;;2.67;;
18669;SDS011;9464;44.918;9.670;2022-10-31T01:30:08;3.50;;;2.10;;
18669;SDS011;9464;44.918;9.670;2022-10-31T01:32:37;5.47;;;2.47;;
18669;SDS011;9464;44.918;9.670;2022-10-31T01:35:05;4.37;;;2.33;;
18669;SDS011;9464;44.918;9.670;2022-10-31T01:37:34;4.23;;;2.60;;
18669;SDS011;9464;44.918;9.670;2022-10-31T01:40:02;5.63;;;2.53;;
18669;SDS011;9464;44.918;9.670;2022-10-31T01:42:31;4.83;;;2.40;;
18669;SDS011;9464;44.918;9.670;2022-10-31T01:45:01;4.23;;;2.07;;
18669;SDS011;9464;44.918;9.670;2022-10-31T01:47:33;7.67;;;2.80;;
18669;SDS011;9464;44.918;9.670;2022-10-31T01:50:04;3.63;;;2.53;;
18669;SDS011;9464;44.918;9.670;2022-10-31T01:52:35;5.77;;;2.83;;
18669;SDS011;9464;44.918;9.670;2022-10-31T01:55:07;4.90;;;2.60;;
18669;SDS011;9464;44.918;9.670;2022-10-31T01:57:37;6.13;;;3.17;;
18669;SDS011;9464;44.918;9.670;2022-10-31T02:00:10;8.20;;;2.57;;
18669;SDS011;9464;44.918;9.670;2022-10-31T02:02:39;5.10;;;2.53;;
18669;SDS011;9464;44.918;9.670;2022-10-31T02:05:09;4.37;;;2.20;;
18669;SDS011;9464;44.918;9.670;2022-10-31T02:07:39;3.97;;;2.17;;
18669;SDS011;9464;44.918;9.670;2022-10-31T02:10:09;3.83;;;2.10;;
18669;SDS011;9464;44.918;9.670;2022-10-31T02:12:38;7.17;;;2.67;;
18669;SDS011;9464;44.918;9.670;2022-10-31T02:15:07;4.07;;;2.43;;
18669;SDS011;9464;44.918;9.670;2022-10-31T02:17:37;3.20;;;2.27;;
18669;SDS011;9464;44.918;9.670;2022-10-31T02:20:09;4.47;;;2.43;;
18669;SDS011;9464;44.918;9.670;2022-10-31T02:22:43;4.17;;;2.10;;
18669;SDS011;9464;44.918;9.670;2022-10-31T02:25:22;5.10;;;2.10;;
18669;SDS011;9464;44.918;9.670;2022-10-31T02:28:09;3.20;;;2.23;;
18669;SDS011;9464;44.918;9.670;2022-10-31T02:30:57;7.37;;;2.40;;
18669;SDS011;9464;44.918;9.670;2022-10-31T02:33:29;3.80;;;2.27;;
18669;SDS011;9464;44.918;9.670;2022-10-31T02:36:01;2.47;;;1.93;;
18669;SDS011;9464;44.918;9.670;2022-10-31T02:38:38;3.53;;;2.13;;
18669;SDS011;9464;44.918;9.670;2022-10-31T02:41:09;6.20;;;2.33;;
18669;SDS011;9464;44.918;9.670;2022-10-31T02:43:43;4.53;;;2.70;;
18669;SDS011;9464;44.918;9.670;2022-10-31T02:46:17;3.87;;;1.90;;
18669;SDS011;9464;44.918;9.670;2022-10-31T02:48:47;5.17;;;2.13;;
18669;SDS011;9464;44.918;9.670;2022-10-31T02:51:16;4.37;;;1.77;;
18669;SDS011;9464;44.918;9.670;2022-10-31T02:53:45;2.40;;;2.07;;
18669;SDS011;9464;44.918;9.670;2022-10-31T02:56:14;6.30;;;2.30;;
18669;SDS011;9464;44.918;9.670;2022-10-31T02:58:43;4.83;;;2.00;;
18669;SDS011;9464;44.918;9.670;2022-10-31T03:01:33;6.90;;;2.47;;
18669;SDS011;9464;44.918;9.670;2022-10-31T03:04:06;5.80;;;2.13;;
18669;SDS011;9464;44.918;9.670;2022-10-31T03:06:39;4.87;;;2.37;;
18669;SDS011;9464;44.918;9.670;2022-10-31T03:09:11;5.00;;;2.43;;
18669;SDS011;9464;44.918;9.670;2022-10-31T03:11:42;4.60;;;1.97;;
18669;SDS011;9464;44.918;9.670;2022-10-31T03:14:13;3.37;;;2.30;;
18669;SDS011;9464;44.918;9.670;2022-10-31T03:16:45;4.93;;;2.20;;
18669;SDS011;9464;44.918;9.670;2022-10-31T03:19:14;2.20;;;1.93;;
18669;SDS011;9464;44.918;9.670;2022-10-31T03:21:44;4.33;;;1.90;;
18669;SDS011;9464;44.918;9.670;2022-10-31T03:24:13;2.50;;;1.93;;
18669;SDS011;9464;44.918;9.670;2022-10-31T03:26:43;2.80;;;2.00;;
18669;SDS011;9464;44.918;9.670;2022-10-31T03:29:14;2.90;;;1.77;;
18669;SDS011;9464;44.918;9.670;2022-10-31T03:31:46;5.00;;;2.47;;
18669;SDS011;9464;44.918;9.670;2022-10-31T03:34:15;3.73;;;2.10;;
18669;SDS011;9464;44.918;9.670;2022-10-31T03:36:46;5.63;;;2.03;;
18669;SDS011;9464;44.918;9.670;2022-10-31T03:39:17;2.77;;;1.83;;
18669;SDS011;9464;44.918;9.670;2022-10-31T03:41:47;7.47;;;2.10;;
18669;SDS011;9464;44.918;9.670;2022-10-31T03:44:17;3.53;;;2.10;;
18669;SDS011;9464;44.918;9.670;2022-10-31T03:46:48;3.17;;;1.93;;
18669;SDS011;9464;44.918;9.670;2022-10-31T03:49:17;3.10;;;1.77;;
18669;SDS011;9464;44.918;9.670;2022-10-31T03:51:46;2.80;;;2.00;;
18669;SDS011;9464;44.918;9.670;2022-10-31T03:54:18;4.30;;;2.17;;
18669;SDS011;9464;44.918;9.670;2022-10-31T03:56:49;3.60;;;1.87;;
18669;SDS011;9464;44.918;9.670;2022-10-31T03:59:19;4.47;;;2.07;;
18669;SDS011;9464;44.918;9.670;2022-10-31T04:01:52;3.43;;;2.13;;
18669;SDS011;9464;44.918;9.670;2022-10-31T04:04:21;4.00;;;2.00;;
18669;SDS011;9464;44.918;9.670;2022-10-31T04:06:50;3.90;;;1.93;;
18669;SDS011;9464;44.918;9.670;2022-10-31T04:09:19;4.10;;;2.20;;
18669;SDS011;9464;44.918;9.670;2022-10-31T04:11:48;3.07;;;2.10;;
18669;SDS011;9464;44.918;9.670;2022-10-31T04:14:17;3.43;;;2.00;;
18669;SDS011;9464;44.918;9.670;2022-10-31T04:16:45;4.37;;;2.30;;
18669;SDS011;9464;44.918;9.670;2022-10-31T04:19:15;5.23;;;2.33;;
18669;SDS011;9464;44.918;9.670;2022-10-31T04:21:44;3.80;;;2.10;;
18669;SDS011;9464;44.918;9.670;2022-10-31T04:24:12;2.50;;;1.83;;
18669;SDS011;9464;44.918;9.670;2022-10-31T04:26:40;5.33;;;2.47;;
18669;SDS011;9464;44.918;9.670;2022-10-31T04:29:09;5.20;;;2.00;;
18669;SDS011;9464;44.918;9.670;2022-10-31T04:31:37;4.53;;;2.10;;
18669;SDS011;9464;44.918;9.670;2022-10-31T04:34:06;4.00;;;2.20;;
18669;SDS011;9464;44.918;9.670;2022-10-31T04:36:36;6.97;;;1.97;;
18669;SDS011;9464;44.918;9.670;2022-10-31T04:39:04;4.37;;;2.20;;
18669;SDS011;9464;44.918;9.670;2022-10-31T04:41:32;8.13;;;2.27;;
18669;SDS011;9464;44.918;9.670;2022-10-31T04:44:01;6.20;;;2.60;;
18669;SDS011;9464;44.918;9.670;2022-10-31T04:46:29;7.33;;;2.10;;
18669;SDS011;9464;44.918;9.670;2022-10-31T04:48:57;3.40;;;2.20;;
18669;SDS011;9464;44.918;9.670;2022-10-31T04:51:26;3.27;;;2.00;;
18669;SDS011;9464;44.918;9.670;2022-10-31T04:53:56;3.57;;;1.87;;
18669;SDS011;9464;44.918;9.670;2022-10-31T04:56:24;7.13;;;2.20;;
18669;SDS011;9464;44.918;9.670;2022-10-31T04:58:52;2.00;;;1.60;;
18669;SDS011;9464;44.918;9.670;2022-10-31T05:01:21;5.27;;;2.17;;
18669;SDS011;9464;44.918;9.670;2022-10-31T05:03:49;3.97;;;1.67;;
18669;SDS011;9464;44.918;9.670;2022-10-31T05:06:18;5.23;;;2.40;;
18669;SDS011;9464;44.918;9.670;2022-10-31T05:08:46;4.93;;;1.90;;
18669;SDS011;9464;44.918;9.670;2022-10-31T05:11:16;3.57;;;2.17;;
18669;SDS011;9464;44.918;9.670;2022-10-31T05:13:44;3.93;;;1.90;;
18669;SDS011;9464;44.918;9.670;2022-10-31T05:16:13;3.90;;;2.40;;
18669;SDS011;9464;44.918;9.670;2022-10-31T05:18:41;3.37;;;1.73;;
18669;SDS011;9464;44.918;9.670;2022-10-31T05:21:09;3.67;;;1.93;;
18669;SDS011;9464;44.918;9.670;2022-10-31T05:23:38;4.70;;;1.90;;
18669;SDS011;9464;44.918;9.670;2022-10-31T05:26:13;2.53;;;1.70;;
18669;SDS011;9464;44.918;9.670;2022-10-31T05:28:43;3.50;;;1.80;;
18669;SDS011;9464;44.918;9.670;2022-10-31T05:31:11;3.03;;;1.63;;
18669;SDS011;9464;44.918;9.670;2022-10-31T05:33:40;3.10;;;1.87;;
18669;SDS011;9464;44.918;9.670;2022-10-31T05:36:08;3.73;;;1.83;;
18669;SDS011;9464;44.918;9.670;2022-10-31T05:38:36;5.77;;;2.27;;
18669;SDS011;9464;44.918;9.670;2022-10-31T05:41:05;4.33;;;2.07;;
18669;SDS011;9464;44.918;9.670;2022-10-31T05:43:33;4.57;;;2.43;;
18669;SDS011;9464;44.918;9.670;2022-10-31T05:46:03;9.43;;;2.20;;
18669;SDS011;9464;44.918;9.670;2022-10-31T05:48:31;4.63;;;2.30;;
18669;SDS011;9464;44.918;9.670;2022-10-31T05:51:00;8.93;;;2.13;;
18669;SDS011;9464;44.918;9.670;2022-10-31T05:53:28;8.17;;;2.30;;
18669;SDS011;9464;44.918;9.670;2022-10-31T05:55:57;9.50;;;2.23;;
18669;SDS011;9464;44.918;9.670;2022-10-31T05:58:25;2.73;;;1.70;;
18669;SDS011;9464;44.918;9.670;2022-10-31T06:00:54;4.30;;;1.70;;
18669;SDS011;9464;44.918;9.670;2022-10-31T06:03:23;8.00;;;2.00;;
18669;SDS011;9464;44.918;9.670;2022-10-31T06:05:52;3.67;;;2.00;;
18669;SDS011;9464;44.918;9.670;2022-10-31T06:08:20;5.27;;;1.80;;
18669;SDS011;9464;44.918;9.670;2022-10-31T06:10:49;2.50;;;1.60;;
18669;SDS011;9464;44.918;9.670;2022-10-31T06:13:19;5.63;;;1.70;;
18669;SDS011;9464;44.918;9.670;2022-10-31T06:15:47;4.77;;;1.77;;
18669;SDS011;9464;44.918;9.670;2022-10-31T06:18:16;3.07;;;1.60;;
18669;SDS011;9464;44.918;9.670;2022-10-31T06:20:45;3.17;;;1.67;;
18669;SDS011;9464;44.918;9.670;2022-10-31T06:23:14;6.07;;;1.77;;
18669;SDS011;9464;44.918;9.670;2022-10-31T06:25:42;9.43;;;1.70;;
18669;SDS011;9464;44.918;9.670;2022-10-31T06:28:11;3.07;;;1.80;;
18669;SDS011;9464;44.918;9.670;2022-10-31T06:30:39;7.30;;;1.53;;
18669;SDS011;9464;44.918;9.670;2022-10-31T06:33:07;5.13;;;1.90;;
18669;SDS011;9464;44.918;9.670;2022-10-31T06:35:36;6.53;;;2.40;;
18669;SDS011;9464;44.918;9.670;2022-10-31T06:38:05;7.07;;;2.10;;
18669;SDS011;9464;44.918;9.670;2022-10-31T06:40:34;7.07;;;2.03;;
18669;SDS011;9464;44.918;9.670;2022-10-31T06:43:02;3.47;;;2.00;;
18669;SDS011;9464;44.918;9.670;2022-10-31T06:45:31;3.90;;;2.37;;
18669;SDS011;9464;44.918;9.670;2022-10-31T06:47:59;7.87;;;2.50;;
18669;SDS011;9464;44.918;9.670;2022-10-31T06:50:44;5.40;;;2.63;;
18669;SDS011;9464;44.918;9.670;2022-10-31T06:53:14;4.97;;;2.10;;
18669;SDS011;9464;44.918;9.670;2022-10-31T06:55:42;3.13;;;2.17;;
18669;SDS011;9464;44.918;9.670;2022-10-31T06:58:11;3.23;;;1.80;;
18669;SDS011;9464;44.918;9.670;2022-10-31T07:00:39;4.20;;;2.33;;
18669;SDS011;9464;44.918;9.670;2022-10-31T07:03:09;4.67;;;2.27;;
18669;SDS011;9464;44.918;9.670;2022-10-31T07:05:38;5.80;;;2.37;;
18669;SDS011;9464;44.918;9.670;2022-10-31T07:08:07;6.03;;;2.83;;
18669;SDS011;9464;44.918;9.670;2022-10-31T07:10:38;4.03;;;2.03;;
18669;SDS011;9464;44.918;9.670;2022-10-31T07:13:09;5.43;;;2.50;;
18669;SDS011;9464;44.918;9.670;2022-10-31T07:15:38;6.87;;;2.57;;
18669;SDS011;9464;44.918;9.670;2022-10-31T07:18:07;10.57;;;2.03;;
18669;SDS011;9464;44.918;9.670;2022-10-31T07:20:36;3.90;;;2.00;;
18669;SDS011;9464;44.918;9.670;2022-10-31T07:23:04;5.10;;;2.53;;
18669;SDS011;9464;44.918;9.670;2022-10-31T07:25:33;7.57;;;1.87;;
18669;SDS011;9464;44.918;9.670;2022-10-31T07:28:03;4.10;;;2.00;;
18669;SDS011;9464;44.918;9.670;2022-10-31T07:30:31;2.53;;;1.67;;
18669;SDS011;9464;44.918;9.670;2022-10-31T07:33:00;5.13;;;2.30;;
18669;SDS011;9464;44.918;9.670;2022-10-31T07:35:28;7.80;;;2.23;;
18669;SDS011;9464;44.918;9.670;2022-10-31T07:37:57;3.67;;;1.80;;
18669;SDS011;9464;44.918;9.670;2022-10-31T07:40:26;2.40;;;1.90;;
18669;SDS011;9464;44.918;9.670;2022-10-31T07:42:54;2.73;;;1.93;;
18669;SDS011;9464;44.918;9.670;2022-10-31T07:45:24;5.63;;;2.03;;
18669;SDS011;9464;44.918;9.670;2022-10-31T07:47:52;4.33;;;2.10;;
18669;SDS011;9464;44.918;9.670;2022-10-31T07:50:21;5.37;;;2.50;;
18669;SDS011;9464;44.918;9.670;2022-10-31T07:52:57;4.40;;;2.10;;
18669;SDS011;9464;44.918;9.670;2022-10-31T07:55:26;3.87;;;1.83;;
18669;SDS011;9464;44.918;9.670;2022-10-31T07:57:55;6.60;;;2.67;;
18669;SDS011;9464;44.918;9.670;2022-10-31T08:00:25;4.17;;;2.43;;
18669;SDS011;9464;44.918;9.670;2022-10-31T08:02:57;7.57;;;2.23;;
18669;SDS011;9464;44.918;9.670;2022-10-31T08:05:27;5.37;;;2.10;;
18669;SDS011;9464;44.918;9.670;2022-10-31T08:07:55;7.83;;;1.97;;
18669;SDS011;9464;44.918;9.670;2022-10-31T08:10:25;3.17;;;2.10;;
18669;SDS011;9464;44.918;9.670;2022-10-31T08:12:57;6.87;;;2.03;;
18669;SDS011;9464;44.918;9.670;2022-10-31T08:15:27;4.73;;;2.37;;
18669;SDS011;9464;44.918;9.670;2022-10-31T08:17:55;5.07;;;1.90;;
18669;SDS011;9464;44.918;9.670;2022-10-31T08:20:24;7.07;;;2.30;;
18669;SDS011;9464;44.918;9.670;2022-10-31T08:22:56;4.33;;;2.23;;
18669;SDS011;9464;44.918;9.670;2022-10-31T08:25:25;5.13;;;2.60;;
18669;SDS011;9464;44.918;9.670;2022-10-31T08:27:59;7.13;;;2.13;;
18669;SDS011;9464;44.918;9.670;2022-10-31T08:30:30;5.70;;;2.60;;
18669;SDS011;9464;44.918;9.670;2022-10-31T08:33:00;6.17;;;2.20;;
18669;SDS011;9464;44.918;9.670;2022-10-31T08:35:29;12.37;;;2.57;;
18669;SDS011;9464;44.918;9.670;2022-10-31T08:37:57;3.87;;;2.03;;
18669;SDS011;9464;44.918;9.670;2022-10-31T08:40:27;6.90;;;2.53;;
18669;SDS011;9464;44.918;9.670;2022-10-31T08:42:56;9.67;;;2.43;;
18669;SDS011;9464;44.918;9.670;2022-10-31T08:45:24;8.87;;;2.57;;
18669;SDS011;9464;44.918;9.670;2022-10-31T08:47:57;6.50;;;2.50;;
18669;SDS011;9464;44.918;9.670;2022-10-31T08:50:27;5.03;;;2.47;;
18669;SDS011;9464;44.918;9.670;2022-10-31T08:52:59;7.37;;;2.10;;
18669;SDS011;9464;44.918;9.670;2022-10-31T08:55:32;4.53;;;2.50;;
18669;SDS011;9464;44.918;9.670;2022-10-31T08:58:00;9.37;;;2.40;;
18669;SDS011;9464;44.918;9.670;2022-10-31T09:00:29;8.60;;;2.23;;
18669;SDS011;9464;44.918;9.670;2022-10-31T09:03:00;6.40;;;2.33;;
18669;SDS011;9464;44.918;9.670;2022-10-31T09:05:28;5.87;;;2.43;;
18669;SDS011;9464;44.918;9.670;2022-10-31T09:07:57;6.27;;;2.43;;
18669;SDS011;9464;44.918;9.670;2022-10-31T09:10:27;4.83;;;2.33;;
18669;SDS011;9464;44.918;9.670;2022-10-31T09:12:55;3.67;;;1.83;;
18669;SDS011;9464;44.918;9.670;2022-10-31T09:15:24;4.20;;;2.30;;
18669;SDS011;9464;44.918;9.670;2022-10-31T09:17:53;4.10;;;1.90;;
18669;SDS011;9464;44.918;9.670;2022-10-31T09:20:23;7.53;;;2.10;;
18669;SDS011;9464;44.918;9.670;2022-10-31T09:22:55;6.20;;;2.20;;
18669;SDS011;9464;44.918;9.670;2022-10-31T09:25:24;5.50;;;2.80;;
18669;SDS011;9464;44.918;9.670;2022-10-31T09:27:55;7.13;;;2.50;;
18669;SDS011;9464;44.918;9.670;2022-10-31T09:30:24;6.70;;;2.77;;
18669;SDS011;9464;44.918;9.670;2022-10-31T09:32:55;10.07;;;3.10;;
18669;SDS011;9464;44.918;9.670;2022-10-31T09:35:25;13.77;;;3.23;;
18669;SDS011;9464;44.918;9.670;2022-10-31T09:37:54;7.47;;;3.20;;
18669;SDS011;9464;44.918;9.670;2022-10-31T09:40:24;6.23;;;2.90;;
18669;SDS011;9464;44.918;9.670;2022-10-31T09:42:55;6.80;;;2.70;;
18669;SDS011;9464;44.918;9.670;2022-10-31T09:45:31;5.17;;;2.40;;
18669;SDS011;9464;44.918;9.670;2022-10-31T09:48:05;5.77;;;2.87;;
18669;SDS011;9464;44.918;9.670;2022-10-31T09:50:40;5.77;;;2.50;;
18669;SDS011;9464;44.918;9.670;2022-10-31T09:53:10;9.10;;;3.03;;
18669;SDS011;9464;44.918;9.670;2022-10-31T09:55:42;7.67;;;2.70;;
18669;SDS011;9464;44.918;9.670;2022-10-31T09:58:13;6.30;;;2.80;;
18669;SDS011;9464;44.918;9.670;2022-10-31T10:00:42;6.83;;;2.97;;
18669;SDS011;9464;44.918;9.670;2022-10-31T10:03:15;9.17;;;2.87;;
18669;SDS011;9464;44.918;9.670;2022-10-31T10:05:52;6.10;;;3.13;;
18669;SDS011;9464;44.918;9.670;2022-10-31T10:08:23;9.93;;;3.47;;
18669;SDS011;9464;44.918;9.670;2022-10-31T10:10:55;11.27;;;3.80;;
18669;SDS011;9464;44.918;9.670;2022-10-31T10:13:40;13.27;;;4.37;;
18669;SDS011;9464;44.918;9.670;2022-10-31T10:16:14;8.80;;;4.40;;
18669;SDS011;9464;44.918;9.670;2022-10-31T10:18:48;8.60;;;3.50;;
18669;SDS011;9464;44.918;9.670;2022-10-31T10:21:25;11.13;;;4.63;;
18669;SDS011;9464;44.918;9.670;2022-10-31T10:24:00;13.80;;;4.53;;
18669;SDS011;9464;44.918;9.670;2022-10-31T10:26:34;14.43;;;4.20;;
18669;SDS011;9464;44.918;9.670;2022-10-31T10:29:08;7.80;;;4.37;;
18669;SDS011;9464;44.918;9.670;2022-10-31T10:31:43;8.33;;;4.50;;
18669;SDS011;9464;44.918;9.670;2022-10-31T10:34:15;9.20;;;4.60;;
18669;SDS011;9464;44.918;9.670;2022-10-31T10:36:47;8.83;;;4.70;;
18669;SDS011;9464;44.918;9.670;2022-10-31T10:39:18;9.50;;;5.27;;
18669;SDS011;9464;44.918;9.670;2022-10-31T10:41:49;11.07;;;5.47;;
18669;SDS011;9464;44.918;9.670;2022-10-31T10:44:36;14.10;;;5.17;;
18669;SDS011;9464;44.918;9.670;2022-10-31T10:47:23;9.00;;;5.27;;
18669;SDS011;9464;44.918;9.670;2022-10-31T10:50:05;11.27;;;5.50;;
18669;SDS011;9464;44.918;9.670;2022-10-31T10:52:37;13.87;;;6.07;;
18669;SDS011;9464;44.918;9.670;2022-10-31T10:55:16;11.17;;;5.30;;
18669;SDS011;9464;44.918;9.670;2022-10-31T10:57:54;11.97;;;6.07;;
18669;SDS011;9464;44.918;9.670;2022-10-31T11:00:24;13.90;;;6.03;;
18669;SDS011;9464;44.918;9.670;2022-10-31T11:02:53;10.10;;;5.73;;
18669;SDS011;9464;44.918;9.670;2022-10-31T11:05:23;13.07;;;6.33;;
18669;SDS011;9464;44.918;9.670;2022-10-31T11:07:54;9.67;;;6.43;;
18669;SDS011;9464;44.918;9.670;2022-10-31T11:10:22;13.40;;;6.80;;
18669;SDS011;9464;44.918;9.670;2022-10-31T11:13:00;17.63;;;6.87;;
18669;SDS011;9464;44.918;9.670;2022-10-31T11:15:31;16.30;;;6.80;;
18669;SDS011;9464;44.918;9.670;2022-10-31T11:17:59;11.97;;;6.40;;
18669;SDS011;9464;44.918;9.670;2022-10-31T11:20:29;14.63;;;6.37;;
18669;SDS011;9464;44.918;9.670;2022-10-31T11:23:04;10.90;;;6.10;;
18669;SDS011;9464;44.918;9.670;2022-10-31T11:25:34;10.73;;;5.47;;
18669;SDS011;9464;44.918;9.670;2022-10-31T11:28:03;14.67;;;6.17;;
18669;SDS011;9464;44.918;9.670;2022-10-31T11:30:35;12.47;;;6.47;;
18669;SDS011;9464;44.918;9.670;2022-10-31T11:33:04;15.80;;;6.67;;
18669;SDS011;9464;44.918;9.670;2022-10-31T11:35:32;10.37;;;6.33;;
18669;SDS011;9464;44.918;9.670;2022-10-31T11:38:04;13.93;;;6.37;;
18669;SDS011;9464;44.918;9.670;2022-10-31T11:40:33;13.57;;;5.80;;
18669;SDS011;9464;44.918;9.670;2022-10-31T11:43:01;10.23;;;5.80;;
18669;SDS011;9464;44.918;9.670;2022-10-31T11:45:31;22.40;;;8.20;;
18669;SDS011;9464;44.918;9.670;2022-10-31T11:48:00;13.93;;;6.43;;
18669;SDS011;9464;44.918;9.670;2022-10-31T11:50:32;15.20;;;6.43;;
18669;SDS011;9464;44.918;9.670;2022-10-31T11:53:01;18.83;;;6.50;;
18669;SDS011;9464;44.918;9.670;2022-10-31T11:55:32;13.70;;;6.10;;
18669;SDS011;9464;44.918;9.670;2022-10-31T11:58:01;12.23;;;5.57;;
18669;SDS011;9464;44.918;9.670;2022-10-31T12:00:31;15.97;;;6.90;;
18669;SDS011;9464;44.918;9.670;2022-10-31T12:03:13;12.87;;;5.77;;
18669;SDS011;9464;44.918;9.670;2022-10-31T12:05:44;14.67;;;5.77;;
18669;SDS011;9464;44.918;9.670;2022-10-31T12:08:13;13.60;;;6.50;;
18669;SDS011;9464;44.918;9.670;2022-10-31T12:10:46;14.40;;;7.53;;
18669;SDS011;9464;44.918;9.670;2022-10-31T12:13:22;16.83;;;6.43;;
18669;SDS011;9464;44.918;9.670;2022-10-31T12:15:56;12.63;;;6.07;;
18669;SDS011;9464;44.918;9.670;2022-10-31T12:18:32;14.37;;;5.47;;
18669;SDS011;9464;44.918;9.670;2022-10-31T12:21:10;9.60;;;5.70;;
18669;SDS011;9464;44.918;9.670;2022-10-31T12:23:44;13.20;;;5.20;;
18669;SDS011;9464;44.918;9.670;2022-10-31T12:26:18;10.97;;;4.73;;
18669;SDS011;9464;44.918;9.670;2022-10-31T12:28:59;8.30;;;4.87;;
18669;SDS011;9464;44.918;9.670;2022-10-31T12:31:33;8.33;;;4.67;;
18669;SDS011;9464;44.918;9.670;2022-10-31T12:34:19;10.47;;;5.53;;
18669;SDS011;9464;44.918;9.670;2022-10-31T12:36:50;13.53;;;6.07;;
18669;SDS011;9464;44.918;9.670;2022-10-31T12:39:29;10.23;;;5.10;;
18669;SDS011;9464;44.918;9.670;2022-10-31T12:42:03;11.57;;;5.70;;
18669;SDS011;9464;44.918;9.670;2022-10-31T12:44:44;9.73;;;5.67;;
18669;SDS011;9464;44.918;9.670;2022-10-31T12:50:21;10.27;;;5.90;;
18669;SDS011;9464;44.918;9.670;2022-10-31T12:52:54;16.13;;;5.90;;
18669;SDS011;9464;44.918;9.670;2022-10-31T12:55:30;11.07;;;5.90;;
18669;SDS011;9464;44.918;9.670;2022-10-31T12:58:04;10.30;;;6.00;;
18669;SDS011;9464;44.918;9.670;2022-10-31T13:00:37;14.53;;;6.63;;
18669;SDS011;9464;44.918;9.670;2022-10-31T13:03:12;14.73;;;6.13;;
18669;SDS011;9464;44.918;9.670;2022-10-31T13:05:44;17.67;;;6.37;;
18669;SDS011;9464;44.918;9.670;2022-10-31T13:08:14;11.53;;;4.87;;
18669;SDS011;9464;44.918;9.670;2022-10-31T13:10:44;13.70;;;5.33;;
18669;SDS011;9464;44.918;9.670;2022-10-31T13:13:15;10.60;;;5.43;;
18669;SDS011;9464;44.918;9.670;2022-10-31T13:15:47;9.97;;;5.50;;
18669;SDS011;9464;44.918;9.670;2022-10-31T13:18:19;11.47;;;5.97;;
18669;SDS011;9464;44.918;9.670;2022-10-31T13:20:49;17.53;;;5.57;;
18669;SDS011;9464;44.918;9.670;2022-10-31T13:23:22;12.97;;;5.43;;
18669;SDS011;9464;44.918;9.670;2022-10-31T13:26:13;8.63;;;5.10;;
18669;SDS011;9464;44.918;9.670;2022-10-31T13:28:45;12.97;;;4.53;;
18669;SDS011;9464;44.918;9.670;2022-10-31T13:31:20;13.03;;;5.07;;
18669;SDS011;9464;44.918;9.670;2022-10-31T13:33:49;12.50;;;5.33;;
18669;SDS011;9464;44.918;9.670;2022-10-31T13:36:21;10.03;;;5.13;;
18669;SDS011;9464;44.918;9.670;2022-10-31T13:38:52;13.57;;;5.73;;
18669;SDS011;9464;44.918;9.670;2022-10-31T13:41:29;13.47;;;6.00;;
18669;SDS011;9464;44.918;9.670;2022-10-31T13:44:03;11.07;;;5.37;;
18669;SDS011;9464;44.918;9.670;2022-10-31T13:46:36;13.60;;;5.40;;
18669;SDS011;9464;44.918;9.670;2022-10-31T13:49:21;12.13;;;5.37;;
18669;SDS011;9464;44.918;9.670;2022-10-31T13:51:51;11.53;;;5.23;;
18669;SDS011;9464;44.918;9.670;2022-10-31T13:54:20;11.03;;;5.20;;
18669;SDS011;9464;44.918;9.670;2022-10-31T13:56:49;10.50;;;5.80;;
18669;SDS011;9464;44.918;9.670;2022-10-31T13:59:20;9.73;;;5.50;;
18669;SDS011;9464;44.918;9.670;2022-10-31T14:01:50;16.10;;;6.03;;
18669;SDS011;9464;44.918;9.670;2022-10-31T14:04:20;10.77;;;5.67;;
18669;SDS011;9464;44.918;9.670;2022-10-31T14:06:55;9.47;;;5.53;;
18669;SDS011;9464;44.918;9.670;2022-10-31T14:09:26;8.23;;;5.00;;
18669;SDS011;9464;44.918;9.670;2022-10-31T14:11:55;10.47;;;5.47;;
18669;SDS011;9464;44.918;9.670;2022-10-31T14:14:26;9.73;;;5.80;;
18669;SDS011;9464;44.918;9.670;2022-10-31T14:16:57;16.13;;;6.17;;
18669;SDS011;9464;44.918;9.670;2022-10-31T14:19:26;10.30;;;5.63;;
18669;SDS011;9464;44.918;9.670;2022-10-31T14:21:54;18.13;;;6.20;;
18669;SDS011;9464;44.918;9.670;2022-10-31T14:24:33;13.80;;;5.70;;
18669;SDS011;9464;44.918;9.670;2022-10-31T14:27:02;10.93;;;5.97;;
18669;SDS011;9464;44.918;9.670;2022-10-31T14:29:33;11.37;;;6.20;;
18669;SDS011;9464;44.918;9.670;2022-10-31T14:32:04;15.10;;;6.20;;
18669;SDS011;9464;44.918;9.670;2022-10-31T14:34:37;16.63;;;5.73;;
18669;SDS011;9464;44.918;9.670;2022-10-31T14:37:15;10.90;;;5.47;;
18669;SDS011;9464;44.918;9.670;2022-10-31T14:39:51;13.10;;;5.87;;
18669;SDS011;9464;44.918;9.670;2022-10-31T14:42:34;14.07;;;5.17;;
18669;SDS011;9464;44.918;9.670;2022-10-31T14:45:17;12.07;;;5.87;;
18669;SDS011;9464;44.918;9.670;2022-10-31T14:47:52;12.83;;;5.30;;
18669;SDS011;9464;44.918;9.670;2022-10-31T14:53:19;18.47;;;5.93;;
18669;SDS011;9464;44.918;9.670;2022-10-31T14:55:49;8.73;;;5.20;;
18669;SDS011;9464;44.918;9.670;2022-10-31T14:58:19;7.73;;;4.87;;
18669;SDS011;9464;44.918;9.670;2022-10-31T15:00:51;7.77;;;5.03;;
18669;SDS011;9464;44.918;9.670;2022-10-31T15:03:22;11.03;;;5.13;;
18669;SDS011;9464;44.918;9.670;2022-10-31T15:05:52;13.10;;;5.30;;
18669;SDS011;9464;44.918;9.670;2022-10-31T15:08:32;10.60;;;5.07;;
18669;SDS011;9464;44.918;9.670;2022-10-31T15:11:09;10.33;;;5.33;;
18669;SDS011;9464;44.918;9.670;2022-10-31T15:13:41;15.00;;;4.73;;
18669;SDS011;9464;44.918;9.670;2022-10-31T15:16:12;14.60;;;4.97;;
18669;SDS011;9464;44.918;9.670;2022-10-31T15:18:46;11.30;;;4.93;;
18669;SDS011;9464;44.918;9.670;2022-10-31T15:21:15;15.30;;;5.40;;
18669;SDS011;9464;44.918;9.670;2022-10-31T15:23:44;8.77;;;4.57;;
18669;SDS011;9464;44.918;9.670;2022-10-31T15:26:14;11.77;;;4.60;;